Reklama

Seznam meteostanic a jejich METAR

Vyhledat místa podle abecedy:
A B C D E F G H I J K L M N O P Q R S T U V W X Y Z

Filtrovat:

ID stanice:
a/nebo
Název místa (fulltext):
 
Místo (ID)Naposledy načteno 
Shymkent (UAII) Zatím nenačteno  
Siauliai (EYSA) 03.06.2020 17:50 UTC Zobrazit METAR
EYSA 031750Z 04006KT CAVOK 13/09 Q1007 BLU NOSIG
Sibiu (LRSB) 03.06.2020 18:00 UTC Zobrazit METAR
LRSB 031800Z 26006KT 9999 SCT060 13/08 Q1006
Simferopol' (UKFF) Zatím nenačteno  
Singapore (WSSS) 03.06.2020 18:00 UTC Zobrazit METAR
WSSS 031800Z 17005KT 9999 FEW018 SCT150 BKN300 29/26 Q1010 NOSIG
Skopje (LWSK) 03.06.2020 18:00 UTC Zobrazit METAR
LWSK 031800Z 10004KT CAVOK 17/08 Q1009 NOSIG
Soderhamn (ESNY) Zatím nenačteno  
Sofia (LBSF) 03.06.2020 18:00 UTC Zobrazit METAR
LBSF 031800Z 31004KT 9999 FEW057 14/06 Q1009 NOSIG
Sonderborg (EKSB) 03.06.2020 10:50 UTC Zobrazit METAR
EKSB 031050Z 13008KT CAVOK 22/13 Q1006
Split (LDSP) 03.06.2020 18:00 UTC Zobrazit METAR
LDSP 031800Z 00000KT CAVOK 21/10 Q1008 NOSIG
St. Denis (FMEE) 03.06.2020 18:00 UTC Zobrazit METAR
FMEE 031800Z AUTO 13014KT CAVOK 21/13 Q1022 NOSIG
St. Georges (TGPY) 03.06.2020 18:00 UTC Zobrazit METAR
TGPY 031800Z 09018KT 9999 SCT018 30/25 Q1014 NOSIG
St. Johns (TAPA) 03.06.2020 18:00 UTC Zobrazit METAR
TAPA 031800Z 09011KT 050V160 9999 SCT021 30/22 Q1016 NOSIG
St. Petersburg (ULLI) Zatím nenačteno  
St. Pierre Island (LFVP) 03.06.2020 18:00 UTC Zobrazit METAR
LFVP 031800Z 19015KT 170V230 CAVOK 08/06 Q1014 NOSIG
Stavanger (ENZV) 03.06.2020 17:50 UTC Zobrazit METAR
ENZV 031750Z 30012KT 9999 BKN009 12/09 Q1005 TEMPO BKN012
Stockholm (ESSA) 03.06.2020 17:50 UTC Zobrazit METAR
ESSA 031750Z 11009KT CAVOK 15/03 Q1010 NOSIG
Strasbourg (LFST) 03.06.2020 14:00 UTC Zobrazit METAR
LFST 031400Z AUTO 09003KT 010V160 CAVOK 25/14 Q1003 TEMPO VRB15G35KT 1200 +TSRAGR BKN035 SCT050CB
Stuttgart (EDDS) 03.06.2020 17:50 UTC Zobrazit METAR
EDDS 031750Z VRB02KT CAVOK 22/08 Q1002 NOSIG
Tahiti (NTAA) 03.06.2020 18:00 UTC Zobrazit METAR
NTAA 031800Z VRB03KT 9999 FEW025 SCT060 26/20 Q1011 NOSIG
Taipei (RCTP) 03.06.2020 18:00 UTC Zobrazit METAR
RCTP 031800Z 18004KT 140V270 9999 FEW020 28/24 Q1006 NOSIG RMK A2973
Taipei (RCSS) 03.06.2020 18:00 UTC Zobrazit METAR
RCSS 031800Z VRB02KT 9999 FEW025 28/24 Q1006 NOSIG RMK A2973
Tallinn (EETN) 03.06.2020 17:50 UTC Zobrazit METAR
EETN 031750Z 05010KT CAVOK 15/06 Q1010 NOSIG
Tampere (EFTP) 03.06.2020 17:50 UTC Zobrazit METAR
EFTP 031750Z AUTO 10005KT CAVOK 18/02 Q1010
Tarawa I (NGTA) 03.06.2020 18:00 UTC Zobrazit METAR
NGTA 031800Z 06003KT 9999 FEW020 BKN300 27/24 Q1009
Targu Mures (LRTM) 03.06.2020 18:00 UTC Zobrazit METAR
LRTM 031800Z AUTO 30005KT 250V330 9999 BKN095/// BKN110/// 13/08 Q1006
Tartu (EETU) 03.06.2020 17:50 UTC Zobrazit METAR
EETU 031750Z AUTO 11004KT 9999 OVC040/// 15/09 Q1009
Tashkent (UTTT) 03.06.2020 18:00 UTC Zobrazit METAR
UTTT 031800Z 07006KT CAVOK 26/14 Q1007 R08R/CLRD70 NOSIG
Tbilisi (UGGG) Zatím nenačteno  
Tegucigalpa (MHTG) 03.06.2020 15:00 UTC Zobrazit METAR
MHTG 031500Z 17004KT 8000 FEW025 SCT080 23/23 Q1017 A3003 RERA
Tehran (OIII) 03.06.2020 18:00 UTC Zobrazit METAR
OIII 031800Z 31008KT CAVOK 32/M06 Q1013 A2992
Tel Aviv (LLBG) 03.06.2020 17:50 UTC Zobrazit METAR
LLBG 031750Z 30004KT CAVOK 22/14 Q1013 NOSIG
Tenerife (GCTS) 03.06.2020 18:00 UTC Zobrazit METAR
GCTS 031800Z 27013KT 240V300 9999 FEW025 26/17 Q1013 NOSIG
Thessaloniki (LGTS) 03.06.2020 17:50 UTC Zobrazit METAR
LGTS 031750Z 16010KT 9999 FEW025 20/10 Q1007 NOSIG
Thule (BGTL) 03.06.2020 17:56 UTC Zobrazit METAR
BGTL 031756Z AUTO 17020KT 9999 FEW190 M01/M02 A3038 RMK AO2 PK WND 18026/33 SLP273 60000 T10091020 11004 21023 53006 TSNO $
Timisoara (LRTR) 03.06.2020 10:00 UTC Zobrazit METAR
LRTR 031000Z 17010KT 9999 SCT045 20/09 Q1007 NOSIG
Tirana (LATI) 03.06.2020 17:50 UTC Zobrazit METAR
LATI 031750Z 36003KT CAVOK 20/09 Q1010 NOSIG
Tokyo (RJTT) 03.06.2020 14:00 UTC Zobrazit METAR
RJTT 031400Z 15007KT CAVOK 22/21 Q1005 NOSIG
Torp (ENTO) 03.06.2020 17:50 UTC Zobrazit METAR
ENTO 031750Z 19008KT 170V220 CAVOK 17/07 Q1005 NOSIG
Toulouse (LFBO) 03.06.2020 18:00 UTC Zobrazit METAR
LFBO 031800Z AUTO 25010KT CAVOK 21/14 Q1005 TEMPO SCT050TCU
Tripoli (HLLT) 13.07.2014 03:50 UTC Zobrazit METAR
HLLT 130350Z 11009KT CAVOK 24/15 Q1015
Trondheim (ENVA) 03.06.2020 17:50 UTC Zobrazit METAR
ENVA 031750Z 24006KT 9999 SCT057 BKN098 12/10 Q1007 NOSIG RMK WIND 670FT 27005KT
Tunis (DTTA) 03.06.2020 18:00 UTC Zobrazit METAR
DTTA 031800Z 11008KT 050V150 9999 FEW036 24/13 Q1010
Turku (EFTU) 03.06.2020 17:50 UTC Zobrazit METAR
EFTU 031750Z AUTO 16006KT 120V200 CAVOK 17/02 Q1011
Ulaanbaatar (ZMUB) 20.02.2019 12:00 UTC Zobrazit METAR
ZMUB 201200Z CAVOK M14/M25 Q1021 NOSIG RMK QFE657.8 33
Uvea Island (NLWW) 03.06.2020 18:00 UTC Zobrazit METAR
NLWW 031800Z 11007KT 080V160 9999 SCT027 SCT086 BKN280 28/24 Q1011 TEMPO SHRA BKN014
Uzhhorod (UKLU) Zatím nenačteno  
Vagar (EKVG) 03.06.2020 17:50 UTC Zobrazit METAR
EKVG 031750Z AUTO 13008KT 9999 -RA BKN011/// 07/06 Q1014
Valencia (LEVC) 03.06.2020 18:00 UTC Zobrazit METAR
LEVC 031800Z 12007KT 060V140 9999 FEW050 31/16 Q1002 NOSIG
Varna (LBWN) 03.06.2020 18:00 UTC Zobrazit METAR
LBWN 031800Z 13003KT 100V180 9999 FEW033 16/10 Q1008 NOSIG
Předchozí 1 ... 6 7 8 9 Další
Reklama

Lunární kalendář

  • 05.06.Fáze měsíce uplnek
  • 13.06.Fáze měsíce posl_ctvrt
  • 21.06.Fáze měsíce nov
  • 28.06.Fáze měsíce prv_ctvrt



Reklama
Meteodomečky

Počasí na Váš email

Emaily jsou bez reklamy a bez spamu



Odhlásit newsletter

Reklama


Další české internetové stránky (nejen) o počasí najdete v katalogu TOPlist - weby o počasí nebo vyhledejte na internetu, co jste tu na 🌞 Slunečnu ⛅ zatím nenašli:

Reklama